MDPP

Gregorio Luperon International Airport

Puerto Plata, Dominican Republic
TAF MDPP 162200Z 1700/1800 15012KT 8000 -RA FEW017CB SCT017 BKN300 FM 1700/1704 9999 FEW018CB SCT018 BKN300
Issued Valid From Valid To
Oct-16 @ 22:00 UTC
(8 hours ago)
Oct-17 @ 00:00 UTC
(6 hours ago)
Oct-18 @ 00:00 UTC
(in 18 hours)
Oct-17 @ 00:00 to Oct-18 @ 00:00
TAF MDPP 162200Z 1700/1800 15012KT 8000 -RA FEW017CB SCT017 BKN300 FM 1700/1704 9999 FEW018CB SCT018 BKN300
Wind Visibility Clouds Conditions
150° at 12 knots 7,998 meters
  • Few at 1,700' AGL
  • Scattered at 1,700' AGL
  • Broken at 30,000' AGL
  • Light Rain
TAF MDPP 162200Z 1700/1800 15012KT 8000 -RA FEW017CB SCT017 BKN300 FM 1700/1704 9999 FEW018CB SCT018 BKN300
Issued Oct-16 @ 22:00 UTC
(8 hours ago)
Valid From Oct-17 @ 00:00 UTC
(6 hours ago)
Valid To Oct-18 @ 00:00 UTC
(in 18 hours)
Oct-17 @ 00:00 - Oct-18 @ 00:00
Wind Visibility
150° at 12 knots 7,998 meters
Clouds
  • Few at 1,700' AGL
  • Scattered at 1,700' AGL
  • Broken at 30,000' AGL
Conditions
  • Light Rain